Time;durP1;ratioP1;P1;durP2;ratioP2;P2;SDS_P1;SDS_P2;PMS_P1;PMS_P2;Temp;Humidity;BMP_temperature;BMP_pressure;BME280_temperature;BME280_humidity;BME280_pressure;Samples;Min_cycle;Max_cycle;Signal;HPM_P1;HPM_P2
2022/05/08 00:02:19;;;;;;;21.27;16.65;;;;;;;15.57;84.22;101502.91;5006034;28;20072;-86
2022/05/08 00:04:51;;;;;;;21.08;17.38;;;;;;;15.73;84.25;101526.44;5022902;28;20052;-86
2022/05/08 00:07:21;;;;;;;21.10;18.13;;;;;;;15.40;83.42;101460.88;5009009;28;20050;-85
2022/05/08 00:09:49;;;;;;;22.25;19.02;;;;;;;15.55;83.66;101499.53;5007953;28;20079;-86
2022/05/08 00:12:17;;;;;;;21.58;17.02;;;;;;;15.65;83.43;101509.38;5007441;28;20057;-87
2022/05/08 00:14:44;;;;;;;23.48;17.33;;;;;;;15.22;84.03;101451.94;5008617;28;20252;-85
2022/05/08 00:17:14;;;;;;;23.15;18.63;;;;;;;15.62;84.55;101517.69;5009919;28;20053;-85
2022/05/08 00:19:43;;;;;;;19.33;17.10;;;;;;;15.54;84.64;101508.56;5010229;28;20050;-86
2022/05/08 00:22:11;;;;;;;23.13;18.67;;;;;;;15.73;83.38;101514.88;5010136;28;20385;-84
2022/05/08 00:25:02;;;;;;;23.63;18.77;;;;;;;15.68;83.40;101509.06;5010769;28;20250;-85
2022/05/08 00:27:29;;;;;;;21.63;17.57;;;;;;;15.47;84.07;101499.44;5010578;28;20052;-86
2022/05/08 00:29:56;;;;;;;19.77;17.67;;;;;;;15.69;83.15;101508.09;5026125;28;20529;-84
2022/05/08 00:32:23;;;;;;;21.00;17.42;;;;;;;15.55;83.19;101488.00;5009797;28;20594;-84
2022/05/08 00:34:50;;;;;;;23.08;17.48;;;;;;;15.64;82.85;101499.66;5014726;28;20056;-85
2022/05/08 00:37:17;;;;;;;21.02;17.63;;;;;;;15.65;82.23;101490.63;5014969;28;20423;-84
2022/05/08 00:39:44;;;;;;;20.30;17.73;;;;;;;15.67;82.47;101502.03;5015164;28;20161;-85
2022/05/08 00:42:10;;;;;;;20.83;16.73;;;;;;;15.66;82.69;101500.38;5011446;28;20499;-87
2022/05/08 00:44:37;;;;;;;18.38;16.50;;;;;;;15.51;82.64;101474.09;5009292;28;20054;-86
2022/05/08 00:47:04;;;;;;;20.02;17.15;;;;;;;15.46;82.95;101479.03;5009760;28;20049;-86
2022/05/08 00:49:31;;;;;;;20.60;18.00;;;;;;;15.48;82.58;101457.47;5008192;28;20046;-87
2022/05/08 00:51:59;;;;;;;23.17;18.65;;;;;;;15.74;81.75;101479.06;5010476;28;20054;-85
2022/05/08 00:54:26;;;;;;;23.15;17.88;;;;;;;15.57;81.22;101456.59;5025083;28;20068;-85
2022/05/08 00:56:55;;;;;;;20.20;17.38;;;;;;;15.60;81.98;101473.16;5025383;28;20329;-84
2022/05/08 00:59:22;;;;;;;22.00;18.08;;;;;;;15.55;81.62;101462.06;5009422;28;20057;-84
2022/05/08 01:01:49;;;;;;;23.13;17.77;;;;;;;15.42;82.07;101463.44;5025137;28;20137;-85
2022/05/08 01:04:16;;;;;;;23.15;19.15;;;;;;;15.59;81.75;101476.84;5009073;28;20088;-86
2022/05/08 01:06:44;;;;;;;22.35;18.08;;;;;;;15.28;81.25;101424.59;5008487;28;20052;-86
2022/05/08 01:09:10;;;;;;;21.88;18.60;;;;;;;15.33;81.91;101438.38;5008809;28;20128;-85
2022/05/08 01:11:37;;;;;;;22.70;18.48;;;;;;;15.50;82.30;101480.41;5008656;28;20082;-86
2022/05/08 01:14:04;;;;;;;24.25;19.42;;;;;;;15.44;82.26;101467.63;5008617;28;20401;-87
2022/05/08 01:16:31;;;;;;;27.15;18.67;;;;;;;15.51;82.35;101476.75;5026136;28;20085;-85
2022/05/08 01:18:59;;;;;;;27.08;20.20;;;;;;;15.42;82.58;101476.81;5008467;28;20407;-85
2022/05/08 01:21:44;;;;;;;22.33;17.75;;;;;;;15.38;82.50;101473.56;5008500;28;20053;-86
2022/05/08 01:24:15;;;;;;;27.55;18.42;;;;;;;15.28;82.05;101440.66;5024357;28;20492;-87
2022/05/08 01:26:42;;;;;;;21.25;17.60;;;;;;;15.48;82.28;101477.03;5008587;28;20045;-86
2022/05/08 01:29:09;;;;;;;21.10;18.38;;;;;;;15.24;81.84;101432.06;5008586;28;20053;-86
2022/05/08 01:31:35;;;;;;;22.15;19.08;;;;;;;15.23;82.12;101437.59;5008763;28;20081;-87
2022/05/08 01:34:02;;;;;;;27.30;19.52;;;;;;;15.51;82.15;101490.13;5009980;28;20067;-86
2022/05/08 01:36:29;;;;;;;22.83;18.95;;;;;;;15.50;81.66;101482.25;5009013;28;20431;-85
2022/05/08 01:38:56;;;;;;;28.02;20.27;;;;;;;15.55;81.82;101478.13;5008602;28;20045;-87
2022/05/08 01:41:23;;;;;;;26.80;19.77;;;;;;;15.56;81.76;101471.81;5008323;28;20194;-85
2022/05/08 01:43:50;;;;;;;24.27;19.90;;;;;;;15.33;81.96;101449.91;5007214;28;20052;-86
2022/05/08 01:46:16;;;;;;;24.13;20.00;;;;;;;15.44;82.09;101475.66;5007768;28;20049;-85
2022/05/08 01:48:44;;;;;;;22.40;20.00;;;;;;;15.22;82.35;101422.50;5008858;28;20400;-85
2022/05/08 01:51:12;;;;;;;26.02;20.27;;;;;;;15.43;82.45;101465.94;5009692;28;20053;-85
2022/05/08 01:53:39;;;;;;;26.65;21.55;;;;;;;15.16;82.86;101422.09;5008487;28;20056;-85
2022/05/08 01:56:07;;;;;;;28.42;21.17;;;;;;;15.48;82.56;101473.53;5007894;28;20060;-85
2022/05/08 01:58:35;;;;;;;25.08;20.73;;;;;;;14.40;81.58;101274.34;5010604;28;20046;-85
2022/05/08 02:01:08;;;;;;;28.02;20.15;;;;;;;15.63;81.27;101465.84;5017717;28;20057;-85
2022/05/08 02:03:35;;;;;;;28.92;19.30;;;;;;;15.56;80.72;101446.88;5006925;28;20061;-85
2022/05/08 02:06:02;;;;;;;23.58;19.83;;;;;;;15.60;80.81;101457.13;5006659;28;20053;-85
2022/05/08 02:08:29;;;;;;;26.50;20.25;;;;;;;15.15;81.40;101393.69;5006481;28;20061;-85
2022/05/08 02:10:55;;;;;;;27.83;20.50;;;;;;;15.45;81.49;101447.91;5006333;28;20052;-85
2022/05/08 02:13:22;;;;;;;22.67;18.80;;;;;;;15.43;81.34;101452.56;5022694;28;20054;-85
2022/05/08 02:15:49;;;;;;;23.17;18.13;;;;;;;15.51;80.93;101463.38;5006995;28;20065;-84
2022/05/08 02:18:15;;;;;;;25.67;18.88;;;;;;;15.51;81.40;101474.09;5007078;28;20046;-85
2022/05/08 02:20:42;;;;;;;23.92;19.52;;;;;;;15.58;80.25;101475.19;5007780;28;20049;-85
2022/05/08 02:23:09;;;;;;;25.23;19.00;;;;;;;15.11;80.83;101400.31;5006243;28;20054;-85
2022/05/08 02:25:37;;;;;;;25.00;18.52;;;;;;;15.36;80.73;101438.06;5004762;28;20061;-86
2022/05/08 02:28:05;;;;;;;24.08;18.05;;;;;;;15.14;81.40;101410.69;5006091;28;20053;-86
2022/05/08 02:30:32;;;;;;;23.55;18.00;;;;;;;15.44;81.42;101467.63;5005724;28;20093;-86
2022/05/08 02:33:00;;;;;;;21.92;17.33;;;;;;;15.40;81.15;101474.25;5006044;28;20433;-85
2022/05/08 02:35:27;;;;;;;21.77;17.13;;;;;;;15.37;81.53;101474.56;5007187;28;20401;-85
2022/05/08 02:37:55;;;;;;;21.98;16.85;;;;;;;15.41;80.93;101473.25;5005415;28;20050;-86
2022/05/08 02:40:23;;;;;;;19.80;16.17;;;;;;;15.32;81.62;101466.13;5006044;28;20540;-85
2022/05/08 02:42:51;;;;;;;17.02;15.23;;;;;;;15.21;81.40;101452.94;5003471;28;20576;-85
2022/05/08 02:45:18;;;;;;;17.27;14.50;;;;;;;15.33;80.81;101476.66;5007185;28;20049;-85
2022/05/08 02:47:46;;;;;;;15.73;13.50;;;;;;;14.87;80.29;101383.94;5005851;28;20060;-86
2022/05/08 02:50:13;;;;;;;18.98;13.70;;;;;;;15.06;80.60;101426.66;5005025;28;20097;-84
2022/05/08 02:52:41;;;;;;;14.05;12.55;;;;;;;15.13;80.90;101443.81;5004940;28;20141;-85
2022/05/08 03:00:42;;;;;;;12.50;11.13;;;;;;;15.08;81.01;101448.75;5006273;28;20064;-86
2022/05/08 03:03:10;;;;;;;13.88;11.45;;;;;;;14.56;81.28;101354.75;5021704;28;20427;-85
2022/05/08 03:05:40;;;;;;;13.90;11.23;;;;;;;15.21;81.44;101458.28;5005406;28;20560;-85
2022/05/08 03:08:07;;;;;;;13.10;11.43;;;;;;;15.20;81.41;101460.13;5020390;28;20062;-84
2022/05/08 03:13:20;;;;;;;13.38;11.05;;;;;;;14.95;82.37;101429.50;5005766;28;20061;-86
2022/05/08 03:15:47;;;;;;;13.35;11.27;;;;;;;15.27;81.29;101476.44;5021694;28;20045;-86
2022/05/08 03:18:15;;;;;;;12.40;10.35;;;;;;;15.23;80.72;101465.16;5005243;28;20045;-85
2022/05/08 03:20:42;;;;;;;15.07;10.55;;;;;;;15.06;80.79;101445.38;5005663;28;20042;-84
2022/05/08 03:23:08;;;;;;;14.55;10.68;;;;;;;15.12;80.89;101444.81;5005385;28;20050;-85
2022/05/08 03:25:36;;;;;;;11.30;10.20;;;;;;;15.22;80.56;101463.50;5005708;28;20081;-85
2022/05/08 03:28:03;;;;;;;14.40;10.15;;;;;;;15.16;79.86;101453.38;5006518;28;20042;-84
2022/05/08 03:30:30;;;;;;;11.95;10.43;;;;;;;14.06;80.48;101289.03;5006286;28;20571;-85
2022/05/08 03:33:00;;;;;;;13.95;10.27;;;;;;;14.25;79.64;101300.66;5004780;28;20049;-85
2022/05/08 03:35:27;;;;;;;10.82;9.25;;;;;;;15.01;80.07;101442.28;5004959;28;20060;-86
2022/05/08 03:37:53;;;;;;;12.38;9.52;;;;;;;15.22;80.27;101478.69;5006767;28;20066;-86
2022/05/08 03:40:20;;;;;;;12.68;9.95;;;;;;;15.20;79.97;101468.13;5021463;28;20490;-86
2022/05/08 03:42:47;;;;;;;11.73;9.32;;;;;;;15.07;79.77;101438.19;5025216;28;20056;-86
2022/05/08 03:45:13;;;;;;;11.25;9.60;;;;;;;14.48;79.80;101347.41;5024115;28;20195;-86
2022/05/08 03:47:40;;;;;;;12.25;10.10;;;;;;;15.15;80.02;101463.22;5007118;28;20042;-85
2022/05/08 03:50:07;;;;;;;9.73;8.73;;;;;;;15.07;79.66;101449.75;5008970;28;20046;-84
2022/05/08 03:52:34;;;;;;;9.20;8.40;;;;;;;15.27;79.33;101481.78;5024907;28;20459;-85
2022/05/08 03:55:02;;;;;;;11.93;9.75;;;;;;;14.41;79.12;101334.78;5008688;28;20045;-84
2022/05/08 03:57:30;;;;;;;9.70;8.70;;;;;;;15.23;80.05;101481.22;5011555;28;20050;-85
2022/05/08 03:59:57;;;;;;;10.32;9.32;;;;;;;15.06;79.34;101455.22;5029973;28;20041;-85
2022/05/08 04:02:24;;;;;;;12.55;9.57;;;;;;;15.21;80.52;101488.53;5014870;28;20053;-86
2022/05/08 04:04:51;;;;;;;14.38;9.65;;;;;;;15.08;79.80;101471.97;5030860;28;20053;-85
2022/05/08 04:07:17;;;;;;;10.10;8.98;;;;;;;15.12;79.79;101476.91;5009752;28;20057;-87
2022/05/08 04:09:44;;;;;;;10.48;8.73;;;;;;;15.25;79.22;101486.44;5008319;28;20204;-86
2022/05/08 04:12:11;;;;;;;9.80;8.35;;;;;;;15.22;78.79;101484.03;5008293;28;20053;-85
2022/05/08 04:14:37;;;;;;;11.80;9.07;;;;;;;15.27;79.22;101497.84;5023032;28;20243;-86
2022/05/08 04:17:04;;;;;;;14.25;9.18;;;;;;;15.28;79.36;101500.34;5023032;28;20049;-86
2022/05/08 04:19:31;;;;;;;11.30;9.43;;;;;;;15.28;79.11;101488.81;5007733;28;20045;-86
2022/05/08 04:24:43;;;;;;;10.02;9.02;;;;;;;15.31;78.79;101481.31;5004932;28;20447;-85
2022/05/08 04:27:10;;;;;;;10.63;8.88;;;;;;;15.03;78.56;101442.16;5008378;28;20068;-85
2022/05/08 04:29:37;;;;;;;14.02;9.68;;;;;;;15.37;78.42;101504.81;5011302;28;20050;-86
2022/05/08 04:32:04;;;;;;;11.80;8.40;;;;;;;15.32;79.14;101506.25;5004996;28;20043;-86
2022/05/08 04:34:31;;;;;;;9.98;8.93;;;;;;;14.95;79.46;101448.19;4985979;28;20137;-85
2022/05/08 04:36:58;;;;;;;13.88;9.68;;;;;;;15.42;78.64;101509.75;5020430;28;20061;-86
2022/05/08 04:39:25;;;;;;;14.82;8.85;;;;;;;15.26;78.51;101483.59;5022749;28;20488;-85
2022/05/08 04:41:52;;;;;;;10.15;9.02;;;;;;;15.44;78.07;101515.78;5005853;28;20871;-83
2022/05/08 04:44:19;;;;;;;14.10;9.43;;;;;;;14.96;78.35;101441.88;5005993;28;20045;-83
2022/05/08 04:46:46;;;;;;;12.13;8.95;;;;;;;15.36;78.53;101504.97;5022702;28;20412;-83
2022/05/08 04:49:12;;;;;;;14.60;9.27;;;;;;;15.38;77.83;101492.28;5007200;28;20479;-84
2022/05/08 04:51:39;;;;;;;11.60;8.77;;;;;;;15.56;78.04;101524.50;5023609;28;20049;-83
2022/05/08 04:54:06;;;;;;;11.77;9.65;;;;;;;15.57;77.28;101502.09;5021909;28;20265;-83
2022/05/08 04:56:33;;;;;;;11.48;9.20;;;;;;;15.31;77.45;101467.94;5021960;28;20495;-85
2022/05/08 04:58:59;;;;;;;15.15;10.30;;;;;;;15.56;77.46;101519.97;5021733;28;20054;-85
2022/05/08 05:01:26;;;;;;;10.65;9.38;;;;;;;15.56;77.57;101528.00;5011102;28;20508;-84
2022/05/08 05:03:53;;;;;;;9.88;8.88;;;;;;;15.49;77.29;101502.81;5007528;28;20053;-84
2022/05/08 05:06:24;;;;;;;13.20;8.87;;;;;;;15.63;76.98;101532.75;5007125;28;20054;-85
2022/05/08 05:08:50;;;;;;;12.43;9.57;;;;;;;15.57;77.22;101527.00;5007040;28;20054;-84
2022/05/08 05:11:17;;;;;;;12.40;9.35;;;;;;;15.60;77.60;101526.69;5005865;28;20313;-85
2022/05/08 05:13:44;;;;;;;14.43;8.80;;;;;;;15.62;76.62;101531.09;5022138;28;20053;-85
2022/05/08 05:16:10;;;;;;;10.07;9.07;;;;;;;15.52;76.35;101496.31;5021945;28;20056;-85
2022/05/08 05:18:37;;;;;;;10.60;9.20;;;;;;;15.55;76.70;101512.91;5006794;28;20054;-84
2022/05/08 05:21:04;;;;;;;13.32;9.68;;;;;;;15.66;76.88;101525.28;5021094;28;20045;-85
2022/05/08 05:23:33;;;;;;;13.48;8.52;;;;;;;15.73;76.62;101526.44;5005259;28;20057;-85
2022/05/08 05:26:00;;;;;;;15.40;9.43;;;;;;;15.67;76.26;101531.47;5021236;28;20058;-85
2022/05/08 05:28:27;;;;;;;11.73;9.65;;;;;;;15.30;77.15;101468.94;5004654;28;20060;-85
2022/05/08 05:30:53;;;;;;;17.30;8.52;;;;;;;15.59;75.87;101508.97;5005036;28;20499;-85
2022/05/08 05:33:20;;;;;;;11.73;8.85;;;;;;;15.32;76.83;101463.47;5006172;28;20189;-83
2022/05/08 05:35:47;;;;;;;10.23;8.25;;;;;;;15.81;76.63;101539.06;5006668;28;20049;-84
2022/05/08 05:38:13;;;;;;;13.02;8.60;;;;;;;15.83;76.56;101553.16;5021684;28;20056;-84
2022/05/08 05:40:40;;;;;;;12.32;8.55;;;;;;;15.86;76.33;101557.38;5006424;28;20054;-84
2022/05/08 05:43:07;;;;;;;12.13;8.52;;;;;;;15.81;76.32;101539.06;5005972;28;20526;-84
2022/05/08 05:45:33;;;;;;;10.70;8.23;;;;;;;15.93;76.26;101553.94;5021225;28;20046;-84
2022/05/08 05:48:00;;;;;;;14.75;8.48;;;;;;;15.80;76.99;101526.66;5004572;28;20100;-83
2022/05/08 05:50:30;;;;;;;8.95;8.02;;;;;;;15.94;76.32;101550.25;5005167;28;20054;-86
2022/05/08 05:52:57;;;;;;;10.80;8.25;;;;;;;15.72;76.76;101529.25;5005979;28;20404;-85
2022/05/08 05:55:23;;;;;;;10.57;9.05;;;;;;;15.85;77.06;101551.19;5004346;28;20054;-85
2022/05/08 05:57:50;;;;;;;9.05;8.25;;;;;;;15.98;76.17;101551.66;5005362;28;20054;-83
2022/05/08 06:00:20;;;;;;;10.15;8.90;;;;;;;15.62;75.81;101475.72;5006353;28;20444;-84
2022/05/08 06:02:47;;;;;;;10.05;8.80;;;;;;;16.06;75.49;101545.56;5022336;28;20088;-85
2022/05/08 06:05:15;;;;;;;9.65;8.60;;;;;;;15.57;76.32;101484.19;5006184;28;20049;-84
2022/05/08 06:07:42;;;;;;;11.38;8.75;;;;;;;16.02;76.61;101549.53;5022290;28;20557;-85
2022/05/08 06:10:10;;;;;;;11.20;8.02;;;;;;;15.71;76.74;101500.78;5022351;28;20415;-84
2022/05/08 06:12:37;;;;;;;10.00;8.63;;;;;;;15.93;76.22;101524.50;5022451;28;20046;-84
2022/05/08 06:15:06;;;;;;;14.07;9.60;;;;;;;16.02;76.15;101537.00;5022069;28;20050;-85
2022/05/08 06:17:32;;;;;;;10.88;9.77;;;;;;;16.27;75.13;101561.38;5020386;28;20058;-85
2022/05/08 06:19:59;;;;;;;10.85;9.75;;;;;;;16.08;75.16;101537.38;5020209;28;20050;-84
2022/05/08 06:22:27;;;;;;;12.07;9.32;;;;;;;16.25;75.82;101568.72;5004806;28;20050;-84
2022/05/08 06:24:53;;;;;;;12.40;9.90;;;;;;;16.21;75.41;101552.13;5021464;28;20045;-85
2022/05/08 06:27:20;;;;;;;11.20;9.27;;;;;;;16.36;75.07;101570.34;5021347;28;20054;-84
2022/05/08 06:29:48;;;;;;;10.38;9.13;;;;;;;16.26;74.99;101548.13;4990434;28;20054;-85
2022/05/08 06:32:15;;;;;;;13.00;9.90;;;;;;;16.38;74.24;101545.09;5001673;28;20531;-84
2022/05/08 06:34:41;;;;;;;16.35;10.70;;;;;;;16.45;74.58;101575.63;5000373;28;20081;-86
2022/05/08 06:37:08;;;;;;;16.52;10.23;;;;;;;15.97;74.65;101480.34;4985542;28;20109;-84
2022/05/08 06:39:37;;;;;;;11.10;9.02;;;;;;;16.31;74.19;101533.31;5001103;28;20050;-84
2022/05/08 06:42:05;;;;;;;14.82;9.80;;;;;;;16.56;74.63;101560.34;5002197;28;20047;-85
2022/05/08 06:44:32;;;;;;;10.23;8.05;;;;;;;16.40;74.17;101518.97;4986985;28;20046;-85
2022/05/08 06:46:59;;;;;;;9.55;7.55;;;;;;;16.39;73.15;101506.56;5001427;28;20050;-85
2022/05/08 06:49:26;;;;;;;9.90;8.20;;;;;;;16.27;72.38;101467.59;5002204;28;20054;-86
2022/05/08 06:51:53;;;;;;;13.10;9.73;;;;;;;16.82;72.71;101569.34;5003636;28;20054;-84
2022/05/08 06:54:19;;;;;;;10.90;8.65;;;;;;;16.81;72.06;101548.03;5004281;28;20454;-86
2022/05/08 06:56:46;;;;;;;11.98;8.32;;;;;;;16.85;72.19;101552.94;5007202;28;20082;-85
2022/05/08 07:02:05;;;;;;;10.15;7.70;;;;;;;17.22;71.60;101578.72;4987417;28;20105;-85
2022/05/08 07:04:33;;;;;;;10.07;7.55;;;;;;;17.23;71.09;101558.09;5002541;28;20149;-85
2022/05/08 07:07:00;;;;;;;13.45;7.38;;;;;;;17.27;71.56;101575.56;5002347;28;20058;-87
2022/05/08 07:09:28;;;;;;;10.18;7.20;;;;;;;17.14;71.36;101548.31;5001928;28;20061;-85
2022/05/08 07:11:55;;;;;;;10.13;6.68;;;;;;;17.17;71.48;101564.94;5002256;28;20049;-84
2022/05/08 07:14:27;;;;;;;10.90;6.72;;;;;;;17.14;72.48;101559.88;5001387;28;20137;-85
2022/05/08 07:16:54;;;;;;;7.43;6.65;;;;;;;17.27;71.33;101565.66;5002014;28;20050;-85
2022/05/08 07:19:21;;;;;;;10.55;7.60;;;;;;;17.26;71.95;101560.47;5002065;28;20539;-85
2022/05/08 07:21:48;;;;;;;10.50;7.85;;;;;;;17.34;72.21;101555.16;5001784;28;20492;-84
2022/05/08 07:24:20;;;;;;;8.68;7.68;;;;;;;17.41;72.03;101569.63;4987069;28;20133;-87
2022/05/08 07:26:47;;;;;;;10.65;7.97;;;;;;;17.46;72.70;101577.22;5001658;28;20062;-85
2022/05/08 07:29:15;;;;;;;10.73;7.70;;;;;;;17.52;72.21;101557.78;5015996;28;20065;-84
2022/05/08 07:31:43;;;;;;;12.95;8.27;;;;;;;17.46;71.29;101547.69;5021791;28;20050;-83
2022/05/08 07:36:55;;;;;;;12.23;9.38;;;;;;;17.71;71.29;101562.91;5006739;28;20060;-85
2022/05/08 07:39:22;;;;;;;11.77;9.00;;;;;;;17.71;71.27;101573.66;5021570;28;20046;-83
2022/05/08 07:41:49;;;;;;;9.88;8.50;;;;;;;17.66;70.74;101573.31;5021604;28;20128;-86
2022/05/08 07:44:17;;;;;;;13.85;8.98;;;;;;;17.67;71.36;101577.69;5021784;28;20046;-85
2022/05/08 07:46:44;;;;;;;9.55;8.65;;;;;;;17.26;72.27;101518.38;5021675;28;20050;-85
2022/05/08 07:49:11;;;;;;;12.43;10.30;;;;;;;17.61;72.46;101562.19;5021523;28;20042;-84
2022/05/08 07:51:38;;;;;;;12.18;8.32;;;;;;;17.67;72.94;101569.63;5005385;28;20056;-85
2022/05/08 07:54:04;;;;;;;11.65;9.45;;;;;;;17.37;71.86;101505.69;5023072;28;20374;-83
2022/05/08 07:56:31;;;;;;;11.93;8.60;;;;;;;17.79;71.66;101547.84;5015016;28;20058;-86
2022/05/08 07:58:58;;;;;;;9.82;8.63;;;;;;;18.05;70.97;101563.94;5013582;28;20148;-85
2022/05/08 08:01:24;;;;;;;11.98;9.45;;;;;;;17.85;70.99;101542.72;5029484;28;20053;-86
2022/05/08 08:04:12;;;;;;;16.75;11.48;;;;;;;18.06;71.30;101581.75;5011809;28;20131;-85
2022/05/08 08:06:39;;;;;;;12.02;9.55;;;;;;;18.02;71.86;101583.09;5006257;28;20081;-85
2022/05/08 08:09:05;;;;;;;11.90;9.85;;;;;;;18.08;71.26;101574.38;5022547;28;20344;-85
2022/05/08 08:11:32;;;;;;;14.25;9.82;;;;;;;17.99;70.41;101554.69;5021838;28;20050;-85
2022/05/08 08:13:59;;;;;;;10.98;9.32;;;;;;;17.97;70.55;101529.84;5022016;28;20046;-85
2022/05/08 08:16:26;;;;;;;14.65;10.50;;;;;;;18.11;70.49;101563.31;5005511;28;20064;-86
2022/05/08 08:18:56;;;;;;;10.68;9.57;;;;;;;17.96;69.66;101532.69;5004972;28;20072;-86
2022/05/08 08:21:24;;;;;;;16.30;11.50;;;;;;;18.44;68.79;101592.97;5021427;28;20132;-84
2022/05/08 08:23:50;;;;;;;11.60;9.43;;;;;;;18.50;69.52;101609.28;5021558;28;20160;-84
2022/05/08 08:26:17;;;;;;;12.82;10.50;;;;;;;18.18;70.68;101576.91;5021430;28;20049;-85
2022/05/08 08:28:44;;;;;;;11.85;9.68;;;;;;;18.22;69.73;101580.97;5001208;28;20045;-84
2022/05/08 08:31:11;;;;;;;11.30;10.18;;;;;;;17.49;69.46;101477.56;5021052;28;20054;-85
2022/05/08 08:33:46;;;;;;;10.45;9.43;;;;;;;18.29;69.76;101587.38;5006277;28;20053;-85
2022/05/08 08:36:12;;;;;;;13.05;10.82;;;;;;;18.44;70.27;101627.91;5025130;28;20054;-86
2022/05/08 08:38:40;;;;;;;14.07;10.80;;;;;;;18.31;69.35;101593.44;5008712;28;20115;-84
2022/05/08 08:41:07;;;;;;;13.32;11.68;;;;;;;18.01;69.91;101568.81;5010071;28;20307;-84
2022/05/08 08:49:34;;;;;;;14.10;12.50;;;;;;;18.29;71.07;101614.25;5009895;28;20049;-86
2022/05/08 08:52:01;;;;;;;14.05;12.38;;;;;;;18.27;71.22;101608.19;5024334;28;20057;-84
2022/05/08 08:54:27;;;;;;;16.05;13.70;;;;;;;18.48;70.53;101638.19;5009815;28;20058;-84
2022/05/08 08:56:54;;;;;;;15.15;13.55;;;;;;;18.53;70.65;101635.84;5009339;28;20054;-81
2022/05/08 08:59:27;;;;;;;15.43;14.02;;;;;;;18.38;70.21;101617.84;5007877;28;20046;-80
2022/05/08 09:01:55;;;;;;;15.18;13.27;;;;;;;18.31;70.25;101614.94;5023787;28;20194;-81
2022/05/08 09:04:25;;;;;;;12.20;11.00;;;;;;;18.44;69.49;101628.75;5023515;28;20548;-81
2022/05/08 09:06:51;;;;;;;14.07;12.55;;;;;;;18.67;69.70;101644.31;5023542;28;20427;-79
2022/05/08 09:09:23;;;;;;;13.18;11.75;;;;;;;18.78;69.76;101630.56;5008637;28;20120;-80
2022/05/08 09:11:51;;;;;;;17.02;12.20;;;;;;;19.04;69.42;101637.66;5007517;28;20046;-84
2022/05/08 09:14:32;;;;;;;13.88;12.48;;;;;;;18.70;68.52;101582.09;5007082;28;20412;-83
2022/05/08 09:17:01;;;;;;;13.60;12.20;;;;;;;18.68;68.91;101568.81;5008350;28;20436;-83
2022/05/08 09:19:37;;;;;;;14.10;12.35;;;;;;;18.86;67.61;101598.31;5008353;28;20296;-84
2022/05/08 09:22:08;;;;;;;13.40;12.10;;;;;;;18.99;68.45;101612.09;5023435;28;20050;-83
2022/05/08 09:24:38;;;;;;;14.85;13.27;;;;;;;19.18;67.67;101623.56;5007383;28;20048;-84
2022/05/08 09:27:13;;;;;;;12.90;11.70;;;;;;;19.09;69.38;101628.06;5007286;28;20370;-84
2022/05/08 09:29:41;;;;;;;13.85;12.00;;;;;;;19.37;68.92;101654.66;5003209;28;20076;-85
2022/05/08 09:32:39;;;;;;;15.05;12.77;;;;;;;19.21;68.30;101625.91;5008895;28;20042;-85
2022/05/08 09:35:06;;;;;;;13.73;12.02;;;;;;;19.29;68.78;101643.91;5007633;28;20471;-84
2022/05/08 09:37:33;;;;;;;12.75;11.45;;;;;;;19.36;68.52;101653.81;5008787;28;20408;-85
2022/05/08 09:40:19;;;;;;;12.77;11.10;;;;;;;19.22;67.65;101614.09;5023414;28;20045;-85
2022/05/08 09:42:47;;;;;;;13.95;10.52;;;;;;;19.42;67.92;101631.63;5006555;28;20069;-85
2022/05/08 09:45:14;;;;;;;12.48;11.18;;;;;;;19.57;68.26;101647.91;5005478;28;20042;-84
2022/05/08 09:47:46;;;;;;;12.65;11.05;;;;;;;19.53;67.54;101651.13;5022895;28;20098;-85
2022/05/08 09:50:15;;;;;;;13.50;12.10;;;;;;;19.41;68.29;101643.38;5007855;28;20054;-85
2022/05/08 09:52:43;;;;;;;12.82;11.50;;;;;;;19.37;68.56;101630.41;5022917;28;20057;-84
2022/05/08 09:55:12;;;;;;;12.63;11.38;;;;;;;19.49;67.15;101617.44;5022752;28;20042;-85
2022/05/08 09:57:39;;;;;;;12.45;11.25;;;;;;;19.52;66.63;101614.44;5009011;28;20058;-85
2022/05/08 10:00:12;;;;;;;12.18;10.98;;;;;;;19.03;65.91;101526.50;5021256;28;20053;-85
2022/05/08 10:02:43;;;;;;;12.30;11.10;;;;;;;19.46;66.53;101558.56;5003891;28;20065;-85
2022/05/08 10:05:10;;;;;;;11.75;10.45;;;;;;;20.09;66.05;101627.78;5007315;28;20057;-84
2022/05/08 10:07:39;;;;;;;12.00;10.82;;;;;;;20.32;65.62;101625.16;5030615;28;20085;-85
2022/05/08 10:15:43;;;;;;;12.00;10.85;;;;;;;19.84;65.59;101568.59;5005862;28;20154;-84
2022/05/08 10:18:24;;;;;;;12.25;11.05;;;;;;;19.55;64.74;101530.59;5004652;28;20081;-84
2022/05/08 10:21:07;;;;;;;11.90;10.82;;;;;;;20.10;64.35;101626.78;5005758;28;20502;-83
2022/05/08 10:23:36;;;;;;;12.02;10.77;;;;;;;20.04;65.66;101622.06;5005626;28;20442;-84
2022/05/08 10:26:22;;;;;;;12.60;11.30;;;;;;;20.27;64.96;101628.41;5022048;28;20045;-84
2022/05/08 10:29:01;;;;;;;12.85;11.65;;;;;;;20.36;64.22;101614.84;5006883;28;20080;-82
2022/05/08 10:31:49;;;;;;;12.32;11.05;;;;;;;20.19;65.51;101601.44;5005676;28;20046;-83
2022/05/08 10:34:28;;;;;;;12.07;10.88;;;;;;;20.38;65.75;101621.75;5005228;28;20123;-84
2022/05/08 10:37:10;;;;;;;11.00;9.93;;;;;;;20.38;64.34;101613.66;5007203;28;20294;-82
2022/05/08 10:39:44;;;;;;;12.35;11.15;;;;;;;20.42;63.87;101608.78;5021971;28;20061;-85
2022/05/08 10:42:39;;;;;;;12.30;11.20;;;;;;;20.36;62.38;101587.91;5005547;28;20050;-84
2022/05/08 10:45:06;;;;;;;11.23;10.23;;;;;;;20.42;64.14;101603.38;5007066;28;20053;-85
2022/05/08 10:47:33;;;;;;;12.07;10.98;;;;;;;19.29;63.72;101410.53;5006949;28;20061;-84
2022/05/08 10:50:02;;;;;;;11.00;9.30;;;;;;;20.07;63.09;101522.00;5006203;28;20049;-76
2022/05/08 10:52:31;;;;;;;11.13;10.13;;;;;;;20.48;63.80;101602.66;5006283;28;20201;-84
2022/05/08 10:54:59;;;;;;;11.15;10.02;;;;;;;19.66;64.46;101441.34;5005744;28;20042;-87
2022/05/08 10:57:28;;;;;;;11.98;10.88;;;;;;;20.90;64.14;101596.03;5006209;28;20053;-83
2022/05/08 10:59:56;;;;;;;11.20;10.10;;;;;;;21.21;62.02;101582.41;5005720;28;20071;-85
2022/05/08 11:02:43;;;;;;;10.38;9.20;;;;;;;21.12;62.94;101584.38;5005548;28;20153;-83
2022/05/08 11:05:21;;;;;;;11.70;10.60;;;;;;;20.50;61.89;101487.34;5006957;28;20042;-83
2022/05/08 11:07:54;;;;;;;13.02;11.20;;;;;;;20.96;62.27;101587.19;5006067;28;20101;-84
2022/05/08 11:10:24;;;;;;;13.70;10.95;;;;;;;20.20;62.45;101471.03;5009700;28;20050;-84
2022/05/08 11:12:54;;;;;;;12.10;10.90;;;;;;;20.38;62.61;101527.38;5010890;28;20054;-85
2022/05/08 11:15:22;;;;;;;11.90;10.70;;;;;;;20.76;63.54;101583.31;5008498;28;20053;-84
2022/05/08 11:18:09;;;;;;;12.50;11.40;;;;;;;20.69;63.60;101600.19;5007587;28;20104;-84
2022/05/08 11:20:50;;;;;;;11.25;10.25;;;;;;;20.57;64.16;101593.53;5006620;28;20053;-83
2022/05/08 11:23:45;;;;;;;11.23;10.23;;;;;;;20.53;64.52;101594.88;5005307;28;20077;-84
2022/05/08 11:26:14;;;;;;;12.27;11.25;;;;;;;20.18;64.16;101545.03;5005229;28;20054;-85
2022/05/08 11:28:53;;;;;;;11.68;10.57;;;;;;;20.39;64.66;101571.34;5006116;28;20472;-84
2022/05/08 11:31:20;;;;;;;11.25;10.05;;;;;;;20.31;63.73;101541.75;5005031;28;20050;-84
2022/05/08 11:36:35;;;;;;;10.68;9.68;;;;;;;20.75;62.37;101587.00;5006289;28;20046;-82
2022/05/08 11:39:14;;;;;;;10.60;9.70;;;;;;;20.48;62.00;101489.38;5006260;28;20046;-85
2022/05/08 11:41:46;;;;;;;10.00;9.10;;;;;;;21.03;62.04;101568.41;5021032;28;20458;-85
2022/05/08 11:44:12;;;;;;;;;;;;;;;21.17;60.42;101589.22;5022212;28;20054;-83
2022/05/08 11:46:44;;;;;;;10.82;9.88;;;;;;;20.99;61.42;101562.53;5021516;28;19922;-82
2022/05/08 11:49:29;;;;;;;9.43;8.63;;;;;;;20.87;60.96;101531.59;5021330;28;20054;-83
2022/05/08 11:52:03;;;;;;;10.10;8.60;;;;;;;21.15;59.38;101582.31;5021425;28;20501;-83
2022/05/08 11:54:32;;;;;;;9.15;8.10;;;;;;;20.90;60.22;101553.69;5021474;28;20084;-83